createdAt,value
2023-05-21T00:00:30.965Z,11.23
2023-05-21T00:02:58.566Z,10.07
2023-05-21T00:05:26.307Z,12.03
2023-05-21T00:07:53.857Z,12.10
2023-05-21T00:10:21.617Z,11.50
2023-05-21T00:12:49.127Z,11.80
2023-05-21T00:15:16.686Z,12.50
2023-05-21T00:17:44.297Z,12.03
2023-05-21T00:20:12.304Z,11.60
2023-05-21T00:22:39.837Z,12.23
2023-05-21T00:25:07.615Z,13.50
2023-05-21T00:27:35.217Z,13.33
2023-05-21T00:30:03.413Z,13.57
2023-05-21T00:32:31.002Z,12.67
2023-05-21T00:34:58.665Z,12.43
2023-05-21T00:37:26.222Z,10.10
2023-05-21T00:39:53.954Z,11.93
2023-05-21T00:42:21.930Z,9.80
2023-05-21T00:44:49.521Z,12.40
2023-05-21T00:47:17.047Z,10.93
2023-05-21T00:49:44.695Z,11.53
2023-05-21T00:52:12.259Z,10.77
2023-05-21T00:54:39.937Z,11.37
2023-05-21T00:57:07.759Z,9.33
2023-05-21T00:59:35.353Z,11.53
2023-05-21T01:02:03.826Z,10.10
2023-05-21T01:04:32.104Z,10.40
2023-05-21T01:06:59.699Z,9.97
2023-05-21T01:09:27.593Z,10.77
2023-05-21T01:11:56.067Z,9.67
2023-05-21T01:14:24.789Z,9.00
2023-05-21T01:16:52.736Z,10.53
2023-05-21T01:19:21.585Z,9.50
2023-05-21T01:21:51.269Z,11.20
2023-05-21T01:24:19.058Z,9.70
2023-05-21T01:26:46.691Z,9.87
2023-05-21T01:29:17.280Z,10.80
2023-05-21T01:31:57.136Z,10.30
2023-05-21T01:34:27.531Z,8.43
2023-05-21T01:37:00.140Z,9.63
2023-05-21T01:39:30.580Z,6.77
2023-05-21T01:41:58.275Z,8.23
2023-05-21T01:44:26.821Z,8.70
2023-05-21T01:46:55.259Z,8.77
2023-05-21T01:49:23.013Z,7.83
2023-05-21T01:51:50.663Z,8.73
2023-05-21T01:54:18.237Z,7.70
2023-05-21T01:56:45.817Z,8.27
2023-05-21T01:59:13.343Z,8.60
2023-05-21T02:01:41.057Z,9.63
2023-05-21T02:04:08.713Z,7.83
2023-05-21T02:06:36.474Z,7.37
2023-05-21T02:09:04.015Z,9.07
2023-05-21T02:11:31.628Z,7.00
2023-05-21T02:13:59.165Z,7.27
2023-05-21T02:16:26.950Z,7.53
2023-05-21T02:18:54.617Z,7.93
2023-05-21T02:21:22.189Z,7.47
2023-05-21T02:23:49.716Z,7.90
2023-05-21T02:26:17.350Z,6.50
2023-05-21T02:28:44.955Z,7.43
2023-05-21T02:31:12.565Z,7.80
2023-05-21T02:33:43.313Z,8.03
2023-05-21T02:36:10.967Z,8.20
2023-05-21T02:38:38.494Z,8.00
2023-05-21T02:41:06.129Z,7.40
2023-05-21T02:43:33.642Z,8.50
2023-05-21T02:46:01.302Z,9.07
2023-05-21T02:48:28.880Z,8.80
2023-05-21T02:50:56.449Z,8.90
2023-05-21T02:53:23.977Z,8.00
2023-05-21T02:55:51.675Z,8.87
2023-05-21T02:58:19.201Z,9.20
2023-05-21T03:00:47.040Z,9.73
2023-05-21T03:03:14.689Z,8.97
2023-05-21T03:05:42.365Z,8.23
2023-05-21T03:08:09.903Z,8.83
2023-05-21T03:10:37.522Z,7.87
2023-05-21T03:13:06.396Z,9.27
2023-05-21T03:15:35.355Z,8.67
2023-05-21T03:18:03.114Z,8.70
2023-05-21T03:20:30.810Z,7.47
2023-05-21T03:22:58.358Z,9.67
2023-05-21T03:25:27.040Z,8.87
2023-05-21T03:27:54.571Z,9.00
2023-05-21T03:30:22.196Z,8.70
2023-05-21T03:32:49.813Z,10.00
2023-05-21T03:35:17.573Z,7.03
2023-05-21T03:37:45.134Z,9.10
2023-05-21T03:40:12.987Z,7.50
2023-05-21T03:42:40.517Z,8.10
2023-05-21T03:45:08.384Z,9.07
2023-05-21T03:47:36.018Z,8.10
2023-05-21T03:50:03.864Z,8.53
2023-05-21T03:52:31.385Z,7.77
2023-05-21T03:54:59.042Z,8.43
2023-05-21T03:57:26.579Z,9.90
2023-05-21T03:59:54.167Z,8.10
2023-05-21T04:02:22.479Z,10.10
2023-05-21T04:04:50.196Z,8.30
2023-05-21T04:07:17.817Z,9.90
2023-05-21T04:09:45.585Z,9.27
2023-05-21T04:12:13.293Z,7.13
2023-05-21T04:14:40.943Z,7.80
2023-05-21T04:17:08.534Z,9.67
2023-05-21T04:19:36.294Z,7.97
2023-05-21T04:22:03.892Z,8.90
2023-05-21T04:24:31.627Z,9.43
2023-05-21T04:26:59.167Z,10.13
2023-05-21T04:29:26.833Z,8.93
2023-05-21T04:31:54.381Z,8.27
2023-05-21T04:34:22.010Z,10.03
2023-05-21T04:36:49.571Z,9.07
2023-05-21T04:39:17.157Z,9.33
2023-05-21T04:41:44.676Z,9.57
2023-05-21T04:44:12.294Z,9.70
2023-05-21T04:46:41.782Z,9.13
2023-05-21T04:49:10.536Z,9.07
2023-05-21T04:51:38.204Z,8.73
2023-05-21T04:54:05.823Z,8.33
2023-05-21T04:56:33.375Z,9.40
2023-05-21T04:59:01.929Z,8.73
2023-05-21T05:01:30.360Z,9.90
2023-05-21T05:03:58.011Z,9.80
2023-05-21T05:06:25.667Z,9.37
2023-05-21T05:08:53.282Z,9.40
2023-05-21T05:11:20.872Z,9.67
2023-05-21T05:13:48.483Z,8.47
2023-05-21T05:16:16.019Z,9.23
2023-05-21T05:18:46.698Z,9.30
2023-05-21T05:21:14.338Z,9.67
2023-05-21T05:23:41.904Z,9.00
2023-05-21T05:26:09.513Z,8.47
2023-05-21T05:28:37.070Z,8.80
2023-05-21T05:31:04.800Z,7.47
2023-05-21T05:33:32.332Z,9.17
2023-05-21T05:35:59.905Z,8.97
2023-05-21T05:38:27.441Z,8.97
2023-05-21T05:40:55.038Z,7.60
2023-05-21T05:43:22.592Z,8.23
2023-05-21T05:45:50.234Z,10.17
2023-05-21T05:48:17.784Z,9.27
2023-05-21T05:50:46.026Z,9.40
2023-05-21T05:53:13.557Z,8.67
2023-05-21T05:55:41.337Z,8.80
2023-05-21T05:58:08.931Z,8.90
2023-05-21T06:00:36.529Z,7.73
2023-05-21T06:03:04.372Z,9.27
2023-05-21T06:05:32.109Z,9.30
2023-05-21T06:07:59.693Z,8.90
2023-05-21T06:10:27.325Z,7.03
2023-05-21T06:12:54.880Z,8.73
2023-05-21T06:15:22.539Z,9.40
2023-05-21T06:17:50.215Z,6.30
2023-05-21T06:20:17.865Z,8.80
2023-05-21T06:22:45.412Z,9.03
2023-05-21T06:25:16.139Z,9.33
2023-05-21T06:27:45.986Z,6.37
2023-05-21T06:30:13.613Z,8.00
2023-05-21T06:32:41.218Z,8.27
2023-05-21T06:35:09.246Z,7.07
2023-05-21T06:37:39.672Z,9.53
2023-05-21T06:40:07.695Z,9.40
2023-05-21T06:42:35.316Z,9.67
2023-05-21T06:45:02.917Z,10.00
2023-05-21T06:47:30.475Z,10.53
2023-05-21T06:49:58.063Z,10.57
2023-05-21T06:52:25.662Z,8.43
2023-05-21T06:54:53.360Z,10.03
2023-05-21T06:57:21.074Z,8.37
2023-05-21T06:59:48.701Z,9.87
2023-05-21T07:02:16.290Z,10.63
2023-05-21T07:04:43.944Z,9.43
2023-05-21T07:07:11.651Z,14.13
2023-05-21T07:09:39.297Z,12.77
2023-05-21T07:12:07.079Z,13.57
2023-05-21T07:14:34.736Z,12.30
2023-05-21T07:17:02.370Z,10.13
2023-05-21T07:19:30.235Z,9.33
2023-05-21T07:21:58.176Z,8.47
2023-05-21T07:24:25.781Z,10.90
2023-05-21T07:26:53.350Z,10.50
2023-05-21T07:29:21.026Z,9.60
2023-05-21T07:31:48.619Z,10.40
2023-05-21T07:34:16.626Z,8.63
2023-05-21T07:36:44.208Z,11.60
2023-05-21T07:39:11.901Z,8.73
2023-05-21T07:41:39.455Z,10.83
2023-05-21T07:44:07.166Z,12.33
2023-05-21T07:46:34.762Z,10.03
2023-05-21T07:49:02.445Z,11.40
2023-05-21T07:51:29.993Z,11.73
2023-05-21T07:53:59.484Z,10.40
2023-05-21T07:56:27.118Z,12.13
2023-05-21T07:58:54.665Z,11.00
2023-05-21T08:01:22.292Z,11.80
2023-05-21T08:03:50.017Z,10.67
2023-05-21T08:06:17.946Z,12.90
2023-05-21T08:08:45.644Z,11.40
2023-05-21T08:11:13.204Z,10.23
2023-05-21T08:13:40.767Z,8.33
2023-05-21T08:16:08.632Z,8.60
2023-05-21T08:18:36.169Z,11.73
2023-05-21T08:21:03.805Z,10.20
2023-05-21T08:23:31.359Z,13.37
2023-05-21T08:25:58.960Z,11.43
2023-05-21T08:28:26.532Z,11.70
2023-05-21T08:30:54.193Z,11.53
2023-05-21T08:33:21.794Z,10.27
2023-05-21T08:35:49.554Z,10.50
2023-05-21T08:38:17.125Z,12.27
2023-05-21T08:40:46.514Z,11.23
2023-05-21T08:43:14.160Z,9.47
2023-05-21T08:45:42.765Z,12.20
2023-05-21T08:48:11.276Z,10.97
2023-05-21T08:50:38.842Z,10.27
2023-05-21T08:53:15.970Z,11.27
2023-05-21T08:55:47.406Z,12.73
2023-05-21T08:58:15.038Z,11.33
2023-05-21T09:00:42.610Z,11.70
2023-05-21T09:03:11.537Z,13.73
2023-05-21T09:05:48.976Z,13.20
2023-05-21T09:08:20.620Z,11.57
2023-05-21T09:10:52.531Z,12.70
2023-05-21T09:13:20.739Z,13.40
2023-05-21T09:15:48.673Z,13.37
2023-05-21T09:18:16.253Z,13.60
2023-05-21T09:20:43.772Z,10.93
2023-05-21T09:23:11.392Z,15.30
2023-05-21T09:25:39.516Z,10.60
2023-05-21T09:28:16.789Z,10.40
2023-05-21T09:30:44.904Z,11.87
2023-05-21T09:33:12.610Z,9.30
2023-05-21T09:35:46.231Z,13.60
2023-05-21T09:38:13.911Z,12.60
2023-05-21T09:40:44.673Z,11.73
2023-05-21T09:43:14.708Z,13.07
2023-05-21T09:45:55.659Z,13.23
2023-05-21T09:48:39.641Z,12.30
2023-05-21T09:51:13.046Z,11.83
2023-05-21T09:53:50.538Z,10.30
2023-05-21T09:56:19.589Z,12.57
2023-05-21T09:58:47.180Z,11.90
2023-05-21T10:01:14.973Z,11.87
2023-05-21T10:03:43.487Z,12.53
2023-05-21T10:06:11.720Z,12.53
2023-05-21T10:08:43.371Z,12.97
2023-05-21T10:11:11.337Z,12.30
2023-05-21T10:13:42.209Z,12.47
2023-05-21T10:16:10.186Z,12.13
2023-05-21T10:18:38.511Z,13.03
2023-05-21T10:21:07.117Z,12.87
2023-05-21T10:23:36.890Z,12.27
2023-05-21T10:26:04.881Z,12.40
2023-05-21T10:28:33.904Z,12.80
2023-05-21T10:31:01.919Z,13.33
2023-05-21T10:33:29.943Z,13.03
2023-05-21T10:35:59.132Z,13.40
2023-05-21T10:38:27.404Z,11.87
2023-05-21T10:40:55.379Z,13.10
2023-05-21T10:43:25.740Z,12.00
2023-05-21T10:45:56.359Z,11.90
2023-05-21T10:48:29.573Z,12.83
2023-05-21T10:51:03.210Z,13.90
2023-05-21T10:53:49.845Z,12.83
2023-05-21T10:56:20.452Z,12.90
2023-05-21T10:58:48.058Z,12.57
2023-05-21T11:01:16.008Z,12.60
2023-05-21T11:03:43.749Z,13.27
2023-05-21T11:06:11.491Z,12.53
2023-05-21T11:08:39.294Z,12.23
2023-05-21T11:11:06.874Z,13.37
2023-05-21T11:13:47.880Z,13.30
2023-05-21T11:16:16.452Z,13.77
2023-05-21T11:18:44.195Z,13.63
2023-05-21T11:21:12.684Z,14.23
2023-05-21T11:23:52.426Z,12.83
2023-05-21T11:26:23.852Z,13.20
2023-05-21T11:28:51.836Z,13.03
2023-05-21T11:31:25.994Z,13.60
2023-05-21T11:34:11.820Z,13.43
2023-05-21T11:36:40.193Z,15.73
2023-05-21T11:39:11.331Z,14.03
2023-05-21T11:41:57.879Z,13.50
2023-05-21T11:44:41.885Z,12.77
2023-05-21T11:47:13.412Z,13.00
2023-05-21T11:49:41.218Z,12.40
2023-05-21T11:52:09.589Z,13.67
2023-05-21T11:54:43.262Z,14.47
2023-05-21T11:57:10.889Z,15.10
2023-05-21T11:59:38.428Z,14.37
2023-05-21T12:02:06.016Z,12.00
2023-05-21T12:04:34.062Z,12.10
2023-05-21T12:07:04.199Z,10.83
2023-05-21T12:09:31.762Z,14.33
2023-05-21T12:11:59.303Z,11.57
2023-05-21T12:14:27.033Z,14.00
2023-05-21T12:16:55.096Z,13.13
2023-05-21T12:19:24.940Z,12.90
2023-05-21T12:21:52.738Z,15.47
2023-05-21T12:24:20.409Z,15.63
2023-05-21T12:26:48.040Z,13.07
2023-05-21T12:29:15.883Z,12.83
2023-05-21T12:31:50.066Z,15.23
2023-05-21T12:34:37.485Z,13.87
2023-05-21T12:37:05.403Z,14.63
2023-05-21T12:39:33.653Z,13.77
2023-05-21T12:42:02.706Z,11.80
2023-05-21T12:44:32.399Z,14.27
2023-05-21T12:47:00.437Z,12.40
2023-05-21T12:49:31.472Z,15.27
2023-05-21T12:51:59.062Z,14.60
2023-05-21T12:54:31.213Z,14.17
2023-05-21T12:56:58.832Z,14.03
2023-05-21T12:59:26.400Z,8.97
2023-05-21T13:01:54.030Z,13.93
2023-05-21T13:04:21.862Z,13.53
2023-05-21T13:06:49.447Z,14.83
2023-05-21T13:09:17.015Z,14.23
2023-05-21T13:11:44.628Z,10.20
2023-05-21T13:14:12.154Z,14.57
2023-05-21T13:16:39.853Z,14.17
2023-05-21T13:19:07.542Z,12.03
2023-05-21T13:21:35.236Z,14.70
2023-05-21T13:24:02.894Z,14.70
2023-05-21T13:26:30.627Z,14.47
2023-05-21T13:28:58.226Z,13.23
2023-05-21T13:31:25.851Z,12.20
2023-05-21T13:33:53.444Z,12.73
2023-05-21T13:36:21.164Z,14.43
2023-05-21T13:38:48.727Z,15.43
2023-05-21T13:41:16.404Z,14.73
2023-05-21T13:43:43.966Z,14.27
2023-05-21T13:46:11.610Z,15.00
2023-05-21T13:48:39.271Z,12.80
2023-05-21T13:51:06.969Z,15.17
2023-05-21T13:53:34.510Z,14.07
2023-05-21T13:56:02.317Z,14.93
2023-05-21T13:58:29.927Z,13.33
2023-05-21T14:00:57.630Z,13.63
2023-05-21T14:03:25.292Z,12.37
2023-05-21T14:05:52.964Z,12.83
2023-05-21T14:08:20.944Z,13.30
2023-05-21T14:10:48.590Z,13.57
2023-05-21T14:13:20.114Z,12.37
2023-05-21T14:15:47.967Z,10.97
2023-05-21T14:18:15.571Z,13.30
2023-05-21T14:20:43.265Z,13.30
2023-05-21T14:23:10.892Z,13.10
2023-05-21T14:25:38.704Z,12.80
2023-05-21T14:28:06.394Z,13.47
2023-05-21T14:30:34.306Z,14.07
2023-05-21T14:33:01.909Z,13.60
2023-05-21T14:35:29.546Z,13.43
2023-05-21T14:37:57.493Z,13.47
2023-05-21T14:40:25.189Z,13.27
2023-05-21T14:42:52.886Z,13.63
2023-05-21T14:45:20.673Z,12.93
2023-05-21T14:47:48.430Z,12.57
2023-05-21T14:50:16.392Z,13.90
2023-05-21T14:52:43.915Z,13.63
2023-05-21T14:55:12.051Z,13.33
2023-05-21T14:57:39.687Z,12.13
2023-05-21T15:00:07.582Z,13.70
2023-05-21T15:02:35.231Z,13.10
2023-05-21T15:05:03.012Z,12.97
2023-05-21T15:07:30.637Z,12.53
2023-05-21T15:09:58.590Z,12.60
2023-05-21T15:12:26.274Z,13.03
2023-05-21T15:14:53.960Z,11.87
2023-05-21T15:17:21.542Z,11.20
2023-05-21T15:19:49.276Z,13.33
2023-05-21T15:22:16.861Z,11.73
2023-05-21T15:24:44.589Z,12.13
2023-05-21T15:27:12.204Z,11.80
2023-05-21T15:29:39.886Z,10.67
2023-05-21T15:32:07.510Z,12.40
2023-05-21T15:34:35.292Z,12.50
2023-05-21T15:37:02.889Z,10.13
2023-05-21T15:39:30.885Z,13.83
2023-05-21T15:41:58.452Z,12.07
2023-05-21T15:44:26.733Z,12.07
2023-05-21T15:46:54.437Z,9.50
2023-05-21T15:49:22.154Z,13.50
2023-05-21T15:51:49.931Z,13.03
2023-05-21T15:54:17.911Z,11.97
2023-05-21T15:56:45.649Z,12.17
2023-05-21T15:59:14.046Z,13.13
2023-05-21T16:01:41.952Z,13.07
2023-05-21T16:04:09.763Z,11.27
2023-05-21T16:06:37.851Z,12.63
2023-05-21T16:09:05.599Z,12.37
2023-05-21T16:11:33.364Z,11.80
2023-05-21T16:14:00.979Z,13.20
2023-05-21T16:16:28.778Z,12.13
2023-05-21T16:18:56.527Z,12.93
2023-05-21T16:21:24.401Z,12.00
2023-05-21T16:23:52.015Z,11.67
2023-05-21T16:26:19.571Z,12.00
2023-05-21T16:28:47.326Z,12.87
2023-05-21T16:31:14.872Z,11.60
2023-05-21T16:33:42.508Z,9.03
2023-05-21T16:36:10.245Z,10.30
2023-05-21T16:38:37.916Z,11.17
2023-05-21T16:41:05.519Z,10.60
2023-05-21T16:43:33.104Z,9.97
2023-05-21T16:46:03.168Z,9.43
2023-05-21T16:48:31.038Z,10.23
2023-05-21T16:50:59.446Z,11.17
2023-05-21T16:53:27.664Z,11.40
2023-05-21T16:55:55.344Z,11.40
2023-05-21T16:58:22.956Z,11.23
2023-05-21T17:00:50.546Z,11.67
2023-05-21T17:03:18.491Z,11.60
2023-05-21T17:05:46.180Z,11.33
2023-05-21T17:08:13.839Z,11.97
2023-05-21T17:10:41.456Z,11.40
2023-05-21T17:13:21.723Z,11.43
2023-05-21T17:15:50.812Z,9.50
2023-05-21T17:18:18.514Z,11.90
2023-05-21T17:20:48.869Z,11.60
2023-05-21T17:23:16.742Z,12.00
2023-05-21T17:25:44.435Z,12.90
2023-05-21T17:28:12.053Z,12.90
2023-05-21T17:30:39.904Z,11.93
2023-05-21T17:33:07.685Z,11.83
2023-05-21T17:35:35.590Z,12.23
2023-05-21T17:38:03.291Z,12.37
2023-05-21T17:40:31.268Z,12.30
2023-05-21T17:42:59.180Z,11.77
2023-05-21T17:45:26.848Z,12.23
2023-05-21T17:47:55.255Z,11.97
2023-05-21T17:50:23.731Z,11.30
2023-05-21T17:52:51.315Z,11.90
2023-05-21T17:55:22.233Z,12.40
2023-05-21T17:57:50.013Z,12.37
2023-05-21T18:00:29.932Z,11.83
2023-05-21T18:03:03.370Z,10.83
2023-05-21T18:05:31.042Z,11.73
2023-05-21T18:07:59.541Z,12.43
2023-05-21T18:10:27.250Z,12.87
2023-05-21T18:12:54.874Z,12.27
2023-05-21T18:15:22.529Z,11.80
2023-05-21T18:17:50.149Z,11.80
2023-05-21T18:20:18.011Z,12.00
2023-05-21T18:22:45.660Z,12.13
2023-05-21T18:25:13.378Z,11.27
2023-05-21T18:27:40.973Z,12.37
2023-05-21T18:30:08.827Z,11.73
2023-05-21T18:32:36.564Z,12.93
2023-05-21T18:35:04.212Z,12.87
2023-05-21T18:37:31.804Z,12.67
2023-05-21T18:39:59.471Z,12.90
2023-05-21T18:42:27.042Z,12.37
2023-05-21T18:44:54.722Z,12.70
2023-05-21T18:47:22.568Z,12.70
2023-05-21T18:49:50.257Z,13.17
2023-05-21T18:52:17.828Z,13.27
2023-05-21T18:54:45.480Z,12.17
2023-05-21T18:57:13.010Z,13.23
2023-05-21T18:59:40.678Z,13.27
2023-05-21T19:02:08.514Z,12.53
2023-05-21T19:04:36.226Z,13.00
2023-05-21T19:07:03.838Z,12.50
2023-05-21T19:09:31.445Z,12.77
2023-05-21T19:11:59.041Z,13.00
2023-05-21T19:14:26.661Z,13.40
2023-05-21T19:16:54.254Z,11.40
2023-05-21T19:19:21.926Z,13.43
2023-05-21T19:21:49.487Z,14.27
2023-05-21T19:24:17.128Z,14.10
2023-05-21T19:26:44.712Z,14.70
2023-05-21T19:29:12.346Z,14.30
2023-05-21T19:31:40.056Z,15.17
2023-05-21T19:34:07.960Z,19.90
2023-05-21T19:36:51.517Z,18.57
2023-05-21T19:39:21.002Z,20.43
2023-05-21T19:41:51.739Z,20.80
2023-05-21T19:44:19.374Z,19.70
2023-05-21T19:46:46.930Z,23.70
2023-05-21T19:49:14.596Z,23.03
2023-05-21T19:51:42.232Z,21.93
2023-05-21T19:54:09.885Z,21.80
2023-05-21T19:56:37.432Z,24.30
2023-05-21T19:59:05.075Z,21.17
2023-05-21T20:01:32.699Z,23.47
2023-05-21T20:04:00.555Z,22.37
2023-05-21T20:06:28.236Z,21.20
2023-05-21T20:08:55.800Z,22.53
2023-05-21T20:11:23.507Z,20.47
2023-05-21T20:13:51.072Z,19.10
2023-05-21T20:16:18.705Z,20.30
2023-05-21T20:18:46.917Z,19.47
2023-05-21T20:21:15.149Z,16.07
2023-05-21T20:23:42.747Z,18.50
2023-05-21T20:26:10.337Z,16.57
2023-05-21T20:28:37.953Z,17.50
2023-05-21T20:31:05.768Z,17.60
2023-05-21T20:33:34.427Z,19.10
2023-05-21T20:36:01.984Z,19.93
2023-05-21T20:38:29.942Z,20.70
2023-05-21T20:40:57.579Z,22.33
2023-05-21T20:43:25.277Z,20.93
2023-05-21T20:45:53.105Z,19.40
2023-05-21T20:48:20.682Z,21.00
2023-05-21T20:50:48.286Z,19.47
2023-05-21T20:53:16.188Z,19.17
2023-05-21T20:55:43.815Z,19.93
2023-05-21T20:58:11.805Z,20.10
2023-05-21T21:00:39.726Z,20.33
2023-05-21T21:03:07.510Z,17.43
2023-05-21T21:05:35.194Z,21.20
2023-05-21T21:08:05.476Z,20.73
2023-05-21T21:10:33.647Z,21.90
2023-05-21T21:13:01.250Z,23.70
2023-05-21T21:15:28.856Z,24.73
2023-05-21T21:17:56.417Z,25.63
2023-05-21T21:20:24.081Z,26.27
2023-05-21T21:22:51.649Z,30.03
2023-05-21T21:25:19.273Z,29.80
2023-05-21T21:27:47.990Z,30.70
2023-05-21T21:30:15.742Z,32.73
2023-05-21T21:32:43.414Z,31.67
2023-05-21T21:35:11.062Z,31.23
2023-05-21T21:37:38.629Z,31.20
2023-05-21T21:40:06.626Z,29.73
2023-05-21T21:42:34.176Z,28.63
2023-05-21T21:45:01.878Z,32.00
2023-05-21T21:47:29.559Z,33.13
2023-05-21T21:49:57.171Z,35.87
2023-05-21T21:52:24.718Z,32.43
2023-05-21T21:54:52.330Z,34.33
2023-05-21T21:57:19.890Z,35.40
2023-05-21T21:59:47.833Z,32.53
2023-05-21T22:02:15.627Z,33.80
2023-05-21T22:04:43.604Z,32.90
2023-05-21T22:07:11.519Z,31.73
2023-05-21T22:09:39.193Z,29.30
2023-05-21T22:12:07.039Z,30.53
2023-05-21T22:14:34.698Z,29.57
2023-05-21T22:17:02.328Z,26.80
2023-05-21T22:19:30.172Z,28.17
2023-05-21T22:21:57.759Z,23.70
2023-05-21T22:26:58.270Z,19.27
2023-05-21T22:29:25.819Z,16.77
2023-05-21T22:31:53.450Z,16.57
2023-05-21T22:34:20.970Z,15.80
2023-05-21T22:36:48.557Z,17.60
2023-05-21T22:39:16.163Z,16.03
2023-05-21T22:41:43.924Z,16.10
2023-05-21T22:44:11.470Z,17.33
2023-05-21T22:46:39.196Z,15.07
2023-05-21T22:49:06.776Z,15.93
2023-05-21T22:51:34.720Z,15.67
2023-05-21T22:54:02.549Z,16.43
2023-05-21T22:56:30.232Z,14.63
2023-05-21T22:58:57.795Z,15.57
2023-05-21T23:01:25.513Z,15.50
2023-05-21T23:03:53.099Z,15.43
2023-05-21T23:06:20.771Z,14.93
2023-05-21T23:08:48.313Z,15.07
2023-05-21T23:11:15.997Z,14.63
2023-05-21T23:13:43.627Z,14.97
2023-05-21T23:16:11.283Z,14.23
2023-05-21T23:18:38.906Z,15.00
2023-05-21T23:21:06.569Z,15.40
2023-05-21T23:23:34.164Z,14.67
2023-05-21T23:26:01.724Z,15.20
2023-05-21T23:28:29.270Z,15.83
2023-05-21T23:30:56.832Z,15.00
2023-05-21T23:33:24.386Z,15.93
2023-05-21T23:35:52.024Z,15.53
2023-05-21T23:38:19.599Z,17.17
2023-05-21T23:40:47.313Z,15.57
2023-05-21T23:43:14.899Z,16.90
2023-05-21T23:45:42.614Z,16.37
2023-05-21T23:48:10.266Z,16.10
2023-05-21T23:50:38.100Z,17.37
2023-05-21T23:53:05.879Z,16.73
2023-05-21T23:55:33.420Z,17.17
2023-05-21T23:58:00.924Z,16.50
